X  Blizu METAR Podaci o vazduhoplovstvu     LGRX Patras Araxos Agamemnon Airport
Temperatura
61°F Temperatura
52°F Tačka Rose
72% Vlaga



Vetar
0 MPS
0 KM/S
0 M/S
0 Čvorovi



Tiho
S
Trenutna situacija

Delimično oblačno Delimično oblačno
Vazdušni pritisak 1015.92 (hPa) - 30 (inHg)
Vidljivost 6 (Milje) - 9.7 (km)
Aerodrom
Aerodromski kod. LGRX

Lokacija: Patras Araxos Agamemnon Airport
Udaljenost: 108 (mi)

Metar:
LGRX 272150Z 00000KT 9999 FEW020 16/11 Q1016

Vreme: 28-05-2024 00:50 EEST